Time;durP1;ratioP1;P1;durP2;ratioP2;P2;SDS_P1;SDS_P2;PMS_P1;PMS_P2;Temp;Humidity;BMP_temperature;BMP_pressure;BME280_temperature;BME280_humidity;BME280_pressure;Samples;Min_cycle;Max_cycle;Signal;HPM_P1;HPM_P2
2021/12/10 00:04:11;;;;;;;83.40;36.23;;;;;;;-1.42;100.00;99322.16;10316308;28;20412;-87
2021/12/10 00:09:16;;;;;;;85.73;38.23;;;;;;;0.42;100.00;99572.09;10316040;28;20048;-88
2021/12/10 00:14:16;;;;;;;76.20;35.17;;;;;;;-2.52;100.00;99207.97;10331967;28;20360;-87
2021/12/10 00:19:32;;;;;;;86.10;34.83;;;;;;;0.90;100.00;99732.16;10330925;28;20037;-87
2021/12/10 00:24:32;;;;;;;82.17;36.13;;;;;;;1.37;100.00;99683.81;10366429;28;20084;-88
2021/12/10 00:29:34;;;;;;;75.63;35.83;;;;;;;0.89;100.00;99632.97;10331430;28;20084;-88
2021/12/10 00:34:41;;;;;;;80.10;35.83;;;;;;;0.88;100.00;99728.03;10331038;28;20561;-88
2021/12/10 00:39:51;;;;;;;79.60;37.77;;;;;;;-1.20;100.00;99402.84;10314978;28;20040;-88
2021/12/10 00:44:52;;;;;;;82.97;36.53;;;;;;;-0.65;100.00;99432.94;10316630;28;20066;-87
2021/12/10 00:49:53;;;;;;;77.60;34.65;;;;;;;-1.02;100.00;99276.03;10346333;28;20136;-87
2021/12/10 00:54:53;;;;;;;74.73;34.60;;;;;;;-0.10;100.00;99445.06;10346781;28;20144;-87
2021/12/10 00:59:54;;;;;;;79.93;36.63;;;;;;;0.04;100.00;99554.00;10346026;28;20121;-87
2021/12/10 01:04:56;;;;;;;79.20;33.60;;;;;;;0.39;100.00;99573.34;10330709;28;20498;-87
2021/12/10 01:09:59;;;;;;;81.43;37.17;;;;;;;1.07;100.00;99639.47;10345037;28;20026;-88
2021/12/10 01:15:34;;;;;;;81.50;33.72;;;;;;;-1.09;100.00;99248.25;10314263;28;20025;-88
2021/12/10 01:26:08;;;;;;;97.53;38.95;;;;;;;0.10;100.00;99585.63;10347344;28;20125;-88
2021/12/10 01:31:08;;;;;;;86.83;34.97;;;;;;;0.76;100.00;99605.97;10333767;28;20433;-88
2021/12/10 01:36:09;;;;;;;83.53;35.17;;;;;;;0.43;100.00;99503.34;10329002;28;20044;-87
2021/12/10 01:41:12;;;;;;;80.57;32.87;;;;;;;-2.43;100.00;98988.44;10329078;28;20034;-90
2021/12/10 01:46:18;;;;;;;76.18;33.20;;;;;;;-2.00;100.00;99048.94;10330307;28;20061;-90
2021/12/10 01:51:24;;;;;;;77.03;33.43;;;;;;;-1.14;100.00;99212.13;10313640;28;20030;-90
2021/12/10 01:56:27;;;;;;;77.85;34.58;;;;;;;-1.87;100.00;99111.69;10329169;28;20041;-89
2021/12/10 02:01:33;;;;;;;78.73;33.87;;;;;;;-1.66;100.00;99242.75;10328245;28;20042;-87
2021/12/10 02:06:34;;;;;;;93.22;38.20;;;;;;;0.02;100.00;99415.41;10328350;28;20114;-86
2021/12/10 02:11:34;;;;;;;84.53;34.93;;;;;;;-0.36;100.00;99252.22;10343211;28;20549;-87
2021/12/10 02:16:36;;;;;;;79.47;33.80;;;;;;;-0.82;100.00;99345.31;10327460;28;20036;-89
2021/12/10 02:21:39;;;;;;;77.75;35.10;;;;;;;0.07;100.00;99424.53;10344795;28;20049;-88
2021/12/10 02:26:46;;;;;;;73.50;32.60;;;;;;;0.17;100.00;99568.31;10327872;28;20124;-88
2021/12/10 02:31:47;;;;;;;61.42;29.40;;;;;;;-1.84;100.00;99148.19;10328152;28;20379;-88
2021/12/10 02:36:47;;;;;;;73.72;32.00;;;;;;;-0.93;100.00;99310.88;10326664;28;20025;-88
2021/12/10 02:41:48;;;;;;;69.72;30.25;;;;;;;-0.46;100.00;99398.69;10326364;28;20501;-88
2021/12/10 02:46:48;;;;;;;67.68;27.70;;;;;;;-1.90;100.00;99158.00;10326782;28;20474;-87
2021/12/10 02:51:49;;;;;;;63.67;28.63;;;;;;;-1.26;100.00;99263.28;10325347;28;20100;-87
2021/12/10 02:56:51;;;;;;;53.88;27.83;;;;;;;-1.47;100.00;99137.59;10325373;28;20045;-86
2021/12/10 03:01:51;;;;;;;52.17;26.10;;;;;;;-4.11;100.00;98661.19;10341567;28;20449;-87
2021/12/10 03:06:56;;;;;;;50.10;24.03;;;;;;;0.16;100.00;99393.41;10325258;28;20116;-87
2021/12/10 03:11:58;;;;;;;53.93;25.13;;;;;;;-2.20;100.00;99108.38;10308920;28;20405;-87
2021/12/10 03:17:01;;;;;;;46.00;24.30;;;;;;;-4.19;100.00;98570.91;10341939;28;20033;-86
2021/12/10 03:22:01;;;;;;;43.53;22.37;;;;;;;0.76;100.00;99471.34;10340051;28;20053;-86
2021/12/10 03:27:04;;;;;;;49.40;24.30;;;;;;;1.21;100.00;99625.56;10325139;28;20394;-86
2021/12/10 03:32:07;;;;;;;31.95;17.38;;;;;;;1.90;100.00;99583.88;10341792;28;20116;-88
2021/12/10 03:37:08;;;;;;;34.77;17.60;;;;;;;-1.22;100.00;99222.16;10324779;28;20112;-89
2021/12/10 03:42:08;;;;;;;28.13;16.13;;;;;;;1.12;100.00;99449.91;10324902;28;20524;-88
2021/12/10 03:47:09;;;;;;;32.72;16.95;;;;;;;-0.31;100.00;99409.22;10325249;28;20128;-89
2021/12/10 03:52:09;;;;;;;40.97;19.27;;;;;;;-3.63;100.00;98843.59;10324722;28;20030;-89
2021/12/10 03:57:10;;;;;;;42.47;19.55;;;;;;;0.33;100.00;99363.91;10324792;28;20052;-88
2021/12/10 04:02:11;;;;;;;31.07;19.80;;;;;;;-4.00;100.00;98600.56;10324614;28;20129;-89
2021/12/10 04:07:15;;;;;;;40.23;19.90;;;;;;;-0.64;100.00;99145.41;10340969;28;20046;-89
2021/12/10 04:12:17;;;;;;;43.92;21.08;;;;;;;-0.43;100.00;99224.44;10324127;28;20041;-89
2021/12/10 04:17:19;;;;;;;41.87;20.70;;;;;;;-1.92;100.00;99022.53;10308529;28;20033;-88
2021/12/10 04:22:21;;;;;;;44.85;22.17;;;;;;;-0.37;100.00;99080.22;10339982;28;20358;-89
2021/12/10 04:27:21;;;;;;;44.28;23.42;;;;;;;-2.21;100.00;98891.88;10324473;28;20363;-89
2021/12/10 04:32:23;;;;;;;42.97;21.15;;;;;;;-1.09;100.00;99215.84;10324695;28;20021;-88
2021/12/10 04:37:23;;;;;;;44.05;22.73;;;;;;;-3.33;100.00;98810.75;10324351;28;20496;-88
2021/12/10 04:42:24;;;;;;;51.43;23.60;;;;;;;-2.94;100.00;98886.97;10323268;28;20129;-88
2021/12/10 04:47:25;;;;;;;49.63;25.17;;;;;;;-2.00;100.00;98917.63;10343674;28;20034;-88
2021/12/10 04:52:25;;;;;;;52.53;24.37;;;;;;;2.71;100.00;99703.94;10330735;28;20026;-88
2021/12/10 04:57:26;;;;;;;56.45;27.92;;;;;;;-0.16;100.00;99176.28;10346344;28;20491;-88
2021/12/10 05:02:27;;;;;;;56.08;27.70;;;;;;;-0.38;100.00;99151.56;10314478;28;20046;-89
2021/12/10 05:07:30;;;;;;;54.22;28.00;;;;;;;0.04;100.00;99194.16;10331039;28;20042;-89
2021/12/10 05:12:30;;;;;;;52.97;26.60;;;;;;;-2.13;100.00;98754.09;10331511;28;20053;-88
2021/12/10 05:17:33;;;;;;;49.67;27.42;;;;;;;-0.96;100.00;99085.22;10346036;28;20040;-89
2021/12/10 05:22:34;;;;;;;54.73;27.67;;;;;;;-1.83;100.00;99079.72;10330895;28;20402;-87
2021/12/10 05:27:34;;;;;;;46.07;26.20;;;;;;;-1.23;100.00;99117.06;10329214;28;20022;-87
2021/12/10 05:32:35;;;;;;;46.23;26.47;;;;;;;-1.00;100.00;99134.53;10329165;28;20516;-86
2021/12/10 05:37:35;;;;;;;45.40;25.67;;;;;;;-1.47;100.00;99089.84;10329109;28;20560;-86
2021/12/10 05:42:36;;;;;;;48.13;27.13;;;;;;;-3.51;100.00;98788.09;10329051;28;20061;-87
2021/12/10 05:47:36;;;;;;;43.70;24.40;;;;;;;-4.67;100.00;98557.91;10328766;28;20107;-87
2021/12/10 05:52:37;;;;;;;53.33;26.13;;;;;;;-2.73;100.00;99020.47;10360832;28;20087;-86
2021/12/10 05:57:37;;;;;;;50.07;25.97;;;;;;;-3.06;100.00;98906.50;10344413;28;20057;-89
2021/12/10 06:02:38;;;;;;;48.73;26.53;;;;;;;-0.18;100.00;99256.00;10328162;28;20081;-88
2021/12/10 06:07:39;;;;;;;42.20;23.87;;;;;;;-3.24;100.00;98895.59;10343904;28;20049;-88
2021/12/10 06:12:40;;;;;;;38.70;21.15;;;;;;;-2.73;100.00;98978.22;10328129;28;20037;-88
2021/12/10 06:17:41;;;;;;;37.30;21.13;;;;;;;-5.67;100.00;98354.38;10328532;28;20501;-88
2021/12/10 06:22:42;;;;;;;38.07;20.27;;;;;;;-3.33;100.00;98872.66;10327601;28;20076;-87
2021/12/10 06:27:44;;;;;;;33.27;18.80;;;;;;;-5.03;100.00;98606.72;10327155;28;20062;-91
2021/12/10 06:32:45;;;;;;;35.87;18.57;;;;;;;-2.42;100.00;99013.50;10328668;28;20037;-91
2021/12/10 06:37:46;;;;;;;31.77;17.60;;;;;;;-0.96;100.00;99268.91;10327756;28;20049;-91
2021/12/10 06:42:46;;;;;;;30.83;16.77;;;;;;;-2.45;100.00;99039.84;10344106;28;20061;-90
2021/12/10 06:47:48;;;;;;;33.67;17.77;;;;;;;-5.03;100.00;98732.84;10311849;28;20073;-90
2021/12/10 06:52:49;;;;;;;32.70;17.73;;;;;;;-2.41;100.00;98982.84;10327652;28;20049;-90
2021/12/10 06:57:49;;;;;;;38.73;20.70;;;;;;;-5.35;100.00;98668.25;10327887;28;20168;-90
2021/12/10 07:02:50;;;;;;;35.53;18.10;;;;;;;-3.36;100.00;99112.56;10327509;28;20195;-91
2021/12/10 07:07:50;;;;;;;36.23;19.30;;;;;;;-7.89;100.00;98280.69;10327209;28;20041;-90
2021/12/10 07:12:51;;;;;;;37.33;18.47;;;;;;;-5.47;100.00;98746.63;10327632;28;20064;-90
2021/12/10 07:17:52;;;;;;;33.80;17.37;;;;;;;-3.77;100.00;98973.75;10326958;28;20036;-90
2021/12/10 07:22:52;;;;;;;33.30;17.97;;;;;;;-5.55;100.00;98851.34;10343243;28;20165;-90
2021/12/10 07:27:53;;;;;;;32.37;18.37;;;;;;;-6.29;100.00;98593.06;10326854;28;20084;-92
2021/12/10 07:32:53;;;;;;;38.70;17.87;;;;;;;-3.32;100.00;99049.22;10323655;28;20034;-87
2021/12/10 07:37:54;;;;;;;29.23;17.13;;;;;;;-5.99;100.00;98691.88;10339516;28;20489;-87
2021/12/10 07:42:55;;;;;;;37.43;18.63;;;;;;;-5.09;100.00;98963.38;10339485;28;20389;-88
2021/12/10 07:47:57;;;;;;;35.73;16.10;;;;;;;-2.27;100.00;99311.38;10323107;28;20179;-88
2021/12/10 07:52:57;;;;;;;34.57;17.97;;;;;;;-5.19;100.00;98766.25;10323976;28;20556;-88
2021/12/10 07:57:58;;;;;;;33.30;18.60;;;;;;;-4.48;100.00;98942.91;10324138;28;20095;-88
2021/12/10 08:02:59;;;;;;;36.23;17.57;;;;;;;-7.29;100.00;98490.19;10307916;28;20042;-88
2021/12/10 08:08:00;;;;;;;41.57;17.87;;;;;;;-6.37;100.00;98842.25;10323303;28;20041;-87
2021/12/10 08:13:00;;;;;;;37.70;17.20;;;;;;;-1.27;100.00;99412.84;10338996;28;20061;-87
2021/12/10 08:18:11;;;;;;;;;;;;;;;;;;;;;
2021/12/10 08:23:13;;;;;;;39.33;16.73;;;;;;;-5.60;100.00;98762.69;10347490;28;20097;-88
2021/12/10 08:28:13;;;;;;;33.83;17.50;;;;;;;-4.66;100.00;98884.41;10330588;28;20053;-87
2021/12/10 08:33:17;;;;;;;33.67;16.97;;;;;;;-1.97;100.00;99353.25;10363049;28;20501;-88
2021/12/10 08:38:17;;;;;;;35.77;17.00;;;;;;;-2.56;100.00;99296.50;10333818;28;20057;-92
2021/12/10 08:43:21;;;;;;;29.00;15.80;;;;;;;-5.14;100.00;98732.44;10333322;28;20124;-93
2021/12/10 08:48:22;;;;;;;30.80;15.97;;;;;;;-4.87;100.00;98936.41;10333541;28;20037;-92
2021/12/10 08:53:25;;;;;;;28.20;15.20;;;;;;;-4.58;100.00;98886.09;10333519;28;20026;-93
2021/12/10 08:58:26;;;;;;;31.67;16.00;;;;;;;-4.00;100.00;98837.91;10351923;28;20490;-92
2021/12/10 09:03:27;;;;;;;33.00;16.53;;;;;;;-4.43;100.00;98956.53;10340314;28;20050;-86
2021/12/10 09:08:29;;;;;;;31.17;16.33;;;;;;;-4.04;100.00;98987.19;10345411;28;20394;-88
2021/12/10 09:13:32;;;;;;;32.60;15.93;;;;;;;-3.54;100.00;99009.09;10329301;28;20034;-88
2021/12/10 09:18:33;;;;;;;31.33;16.83;;;;;;;-5.08;100.00;98812.09;10328428;28;20146;-88
2021/12/10 09:23:36;;;;;;;26.57;16.30;;;;;;;-4.97;100.00;98890.34;10329532;28;20512;-88
2021/12/10 09:28:37;;;;;;;33.63;16.57;;;;;;;-1.97;100.00;99327.09;10328575;28;20125;-89
2021/12/10 09:33:38;;;;;;;31.77;16.17;;;;;;;-5.63;100.00;98607.59;10329941;28;20044;-92
2021/12/10 09:38:38;;;;;;;24.93;15.60;;;;;;;-4.41;100.00;98884.66;10331110;28;20137;-92
2021/12/10 09:43:39;;;;;;;32.73;16.73;;;;;;;-0.92;100.00;99309.84;10330749;28;20030;-91
2021/12/10 09:48:40;;;;;;;24.55;14.10;;;;;;;-1.00;100.00;99267.72;10314410;28;20509;-91
2021/12/10 09:53:45;;;;;;;26.70;15.00;;;;;;;-2.40;100.00;99038.38;10313536;28;20049;-92
2021/12/10 09:58:46;;;;;;;21.90;12.70;;;;;;;-5.00;100.00;98654.59;10314434;28;20046;-91
2021/12/10 10:03:48;;;;;;;23.83;12.93;;;;;;;-3.00;100.00;99030.53;10313823;28;20049;-91
2021/12/10 10:08:48;;;;;;;21.30;11.13;;;;;;;-1.39;100.00;99266.06;10314209;28;20489;-91
2021/12/10 10:13:50;;;;;;;18.88;11.30;;;;;;;-3.24;100.00;98828.34;10313610;28;20029;-93
2021/12/10 10:18:50;;;;;;;17.27;11.00;;;;;;;-3.03;100.00;98858.66;10319816;28;20037;-92
2021/12/10 10:23:51;;;;;;;18.43;10.87;;;;;;;-2.91;100.00;98760.00;10329861;28;20029;-92
2021/12/10 10:28:54;;;;;;;16.27;8.63;;;;;;;-2.59;100.00;98983.53;10328987;28;20375;-92
2021/12/10 10:33:56;;;;;;;18.50;9.43;;;;;;;-3.12;100.00;98885.84;10328668;28;20085;-87
2021/12/10 10:39:03;;;;;;;15.07;8.77;;;;;;;-3.47;100.00;98762.41;10341465;28;20036;-87
2021/12/10 10:44:05;;;;;;;17.60;9.73;;;;;;;-1.73;100.00;99071.97;10324172;28;20034;-90
2021/12/10 10:49:05;;;;;;;12.20;6.90;;;;;;;-2.19;100.00;98835.88;10309663;28;20560;-86
2021/12/10 10:54:08;;;;;;;15.53;7.23;;;;;;;-2.50;100.00;98961.53;10324841;28;20085;-87
2021/12/10 10:59:17;;;;;;;10.53;6.87;;;;;;;-2.77;100.00;98811.88;10308617;28;20058;-85
2021/12/10 11:04:27;;;;;;;14.73;6.90;;;;;;;-3.16;100.00;98698.91;10325866;28;20093;-90
2021/12/10 11:09:29;;;;;;;11.40;6.90;;;;;;;-0.86;100.00;99084.72;10292902;28;20441;-84
2021/12/10 11:14:39;;;;;;;9.80;5.97;;;;;;;0.80;100.00;99173.72;10296218;28;20034;-90
2021/12/10 11:19:43;;;;;;;9.77;5.57;;;;;;;0.83;100.00;99138.06;10271300;28;20030;-92
2021/12/10 11:24:55;;;;;;;12.70;6.13;;;;;;;0.23;100.00;99147.06;10268389;28;20155;-85
2021/12/10 11:30:10;;;;;;;8.45;5.30;;;;;;;0.48;100.00;99171.28;10285626;28;20030;-89
2021/12/10 11:35:38;;;;;;;10.60;5.97;;;;;;;3.48;100.00;99452.81;10290179;28;20088;-90
2021/12/10 11:40:42;;;;;;;14.52;5.97;;;;;;;-1.47;100.00;98763.28;10313453;28;20086;-90
2021/12/10 11:45:51;;;;;;;9.82;5.35;;;;;;;0.29;100.00;98982.91;10299405;28;20556;-87
2021/12/10 11:51:02;;;;;;;12.40;5.72;;;;;;;-0.30;100.00;98990.91;10285286;28;20502;-91
2021/12/10 11:56:10;;;;;;;9.55;5.32;;;;;;;-0.21;100.00;98871.34;10283406;28;20058;-86
2021/12/10 12:01:16;;;;;;;11.82;6.03;;;;;;;-0.42;100.00;98851.09;10285852;28;20069;-87
2021/12/10 12:06:18;;;;;;;7.78;4.88;;;;;;;-2.48;100.00;98619.94;10284441;28;20100;-88
2021/12/10 12:11:18;;;;;;;9.95;5.57;;;;;;;1.05;100.00;99132.06;10283296;28;20070;-88
2021/12/10 12:16:24;;;;;;;13.93;5.50;;;;;;;2.60;100.00;99372.19;10282320;28;20418;-87
2021/12/10 12:26:34;;;;;;;11.85;5.72;;;;;;;1.89;100.00;99180.59;10301066;28;20037;-92
2021/12/10 12:31:51;;;;;;;8.55;4.88;;;;;;;0.59;100.00;98907.81;10270816;28;20031;-91
2021/12/10 12:36:52;;;;;;;7.57;5.22;;;;;;;4.27;100.00;99443.84;10284509;28;20046;-92
2021/12/10 12:41:53;;;;;;;9.48;5.10;;;;;;;0.28;100.00;98859.47;10298077;28;20038;-88
2021/12/10 12:47:12;;;;;;;8.60;5.07;;;;;;;-0.93;100.00;98668.81;10282129;28;20042;-92
2021/12/10 12:52:20;;;;;;;14.05;6.60;;;;;;;2.33;100.00;99110.31;10289689;28;20105;-88
2021/12/10 12:57:25;;;;;;;10.63;5.22;;;;;;;3.64;100.00;99295.00;10283229;28;20054;-88
2021/12/10 13:02:35;;;;;;;8.15;5.18;;;;;;;3.74;100.00;99111.97;10282348;28;20046;-88
2021/12/10 13:07:51;;;;;;;;;;;;;;;;;;;;;
2021/12/10 13:13:11;;;;;;;9.07;4.45;;;;;;;4.02;100.00;99121.03;10306342;28;20052;-89
2021/12/10 13:18:30;;;;;;;;;;;;;;;;;;;;;
2021/12/10 13:23:43;;;;;;;;;;;;;;;;;;;;;
2021/12/10 13:29:03;;;;;;;8.27;4.50;;;;;;;2.86;100.00;98831.84;10309366;28;20088;-94
2021/12/10 13:34:24;;;;;;;6.22;4.63;;;;;;;2.42;100.00;99079.00;10298274;28;20038;-91
2021/12/10 13:39:44;;;;;;;8.82;5.13;;;;;;;-0.84;100.00;98769.22;10274393;28;20483;-89
2021/12/10 13:44:50;;;;;;;10.52;5.70;;;;;;;1.53;100.00;99224.03;10272723;28;20078;-89
2021/12/10 13:49:52;;;;;;;20.83;6.43;;;;;;;3.51;100.00;99496.66;10289616;28;20038;-88
2021/12/10 13:54:53;;;;;;;13.63;6.47;;;;;;;-2.21;100.00;98866.78;10288355;28;20487;-91
2021/12/10 13:59:58;;;;;;;17.40;6.13;;;;;;;-0.17;100.00;99228.72;10251179;28;20062;-88
2021/12/10 14:04:59;;;;;;;13.03;6.47;;;;;;;0.43;100.00;99260.47;10270162;28;20502;-89
2021/12/10 14:10:07;;;;;;;14.77;6.40;;;;;;;2.45;100.00;99648.09;10287852;28;20121;-92
2021/12/10 14:15:33;;;;;;;13.57;7.20;;;;;;;-0.55;100.00;99366.78;10291272;28;20498;-88
2021/12/10 14:20:51;;;;;;;11.97;6.30;;;;;;;2.09;100.00;99533.94;10290191;28;20454;-89
2021/12/10 14:25:55;;;;;;;;;;;;;;;1.98;100.00;99546.38;10287813;28;20039;-91
2021/12/10 14:31:20;;;;;;;16.17;7.07;;;;;;;-1.37;100.00;99240.50;10305117;28;19909;-89
2021/12/10 14:36:28;;;;;;;11.35;6.28;;;;;;;-1.52;100.00;99113.97;10303831;28;20030;-91
2021/12/10 14:41:32;;;;;;;13.10;6.40;;;;;;;0.56;100.00;99403.03;10303141;28;20589;-91
2021/12/10 14:46:36;;;;;;;16.13;6.80;;;;;;;-1.84;100.00;99070.81;10302871;28;20140;-89
2021/12/10 14:51:37;;;;;;;20.83;7.50;;;;;;;-5.71;100.00;98589.03;10302829;28;20034;-91
2021/12/10 14:56:40;;;;;;;13.97;6.70;;;;;;;-7.96;100.00;98228.09;10281217;28;20042;-89
2021/12/10 15:02:09;;;;;;;20.80;7.80;;;;;;;-6.80;100.00;98596.19;10328749;28;20436;-89
2021/12/10 15:07:17;;;;;;;15.73;9.00;;;;;;;-2.75;100.00;99203.03;10329062;28;20441;-90
2021/12/10 15:12:30;;;;;;;15.90;8.03;;;;;;;-4.87;100.00;98864.78;10326960;28;20930;-94
2021/12/10 15:17:33;;;;;;;14.00;7.10;;;;;;;-3.92;100.00;99130.72;10310991;28;20045;-88
2021/12/10 15:22:48;;;;;;;14.00;7.63;;;;;;;-4.54;100.00;99143.28;10326182;28;20481;-89
2021/12/10 15:28:11;;;;;;;17.23;9.10;;;;;;;-6.62;100.00;98830.34;10332939;28;20054;-88
2021/12/10 15:33:20;;;;;;;13.60;7.77;;;;;;;-4.68;100.00;99214.88;10326967;28;20042;-89
2021/12/10 15:38:36;;;;;;;16.00;9.57;;;;;;;-6.43;100.00;98692.28;10312263;28;20040;-93
2021/12/10 15:43:40;;;;;;;19.07;10.37;;;;;;;-5.11;100.00;99062.03;10327097;28;20034;-88
2021/12/10 15:49:13;;;;;;;22.13;10.53;;;;;;;-3.35;100.00;99531.31;10326079;28;20493;-94
2021/12/10 15:54:24;;;;;;;18.87;9.73;;;;;;;-4.01;100.00;99274.41;10336653;28;20034;-94
2021/12/10 15:59:29;;;;;;;22.50;10.43;;;;;;;-3.36;100.00;99567.34;10310937;28;20402;-89
2021/12/10 16:04:49;;;;;;;19.80;9.50;;;;;;;-4.45;100.00;99246.03;10308811;28;20099;-88
2021/12/10 16:09:57;;;;;;;23.97;10.40;;;;;;;-7.07;100.00;98936.72;10341457;28;20053;-90
2021/12/10 16:16:10;;;;;;;17.07;9.10;;;;;;;-0.88;100.00;99729.84;10315108;28;20109;-90
2021/12/10 16:21:16;;;;;;;18.03;9.50;;;;;;;-5.63;100.00;99051.78;10312718;28;20099;-92
2021/12/10 16:32:56;;;;;;;19.90;10.63;;;;;;;-5.21;100.00;99203.72;10360264;28;20018;-92
2021/12/10 16:38:01;;;;;;;21.70;10.47;;;;;;;-6.10;100.00;99013.88;10313175;28;20560;-90
2021/12/10 16:43:15;;;;;;;32.67;12.83;;;;;;;-1.81;100.00;99907.75;10329980;28;20545;-90
2021/12/10 16:48:21;;;;;;;25.13;11.53;;;;;;;-9.20;100.00;98769.00;10333837;28;20128;-91
2021/12/10 16:53:36;;;;;;;20.60;12.43;;;;;;;-4.15;100.00;99393.63;10331548;28;20432;-90
2021/12/10 16:59:07;;;;;;;23.63;13.77;;;;;;;-9.52;100.00;98581.78;10349976;28;20536;-92
2021/12/10 17:04:30;;;;;;;30.53;14.53;;;;;;;-7.20;100.00;99136.09;10325662;28;20470;-90
2021/12/10 17:10:16;;;;;;;;;;;;;;;;;;;;;
2021/12/10 17:16:14;;;;;;;;;;;;;;;;;;;;;
2021/12/10 17:22:06;;;;;;;;;;;;;;;;;;;;;
2021/12/10 17:27:18;;;;;;;;;;;;;;;;;;;;;
2021/12/10 17:45:17;;;;;;;39.10;17.33;;;;;;;-8.07;100.00;99133.78;10232085;29;20604;-91
2021/12/10 17:51:10;;;;;;;39.40;16.70;;;;;;;-8.76;100.00;98816.28;10258586;28;20490;-91
2021/12/10 17:56:16;;;;;;;39.03;16.80;;;;;;;-5.05;100.00;99564.09;10327594;28;20139;-93
2021/12/10 18:01:31;;;;;;;40.13;17.20;;;;;;;-5.09;100.00;99602.03;10315458;28;20567;-92
2021/12/10 18:06:37;;;;;;;39.67;17.30;;;;;;;-6.78;100.00;99204.22;10316026;28;20038;-92
2021/12/10 18:11:42;;;;;;;34.30;17.10;;;;;;;-4.80;100.00;99795.53;10329413;28;20052;-90
2021/12/10 18:17:20;;;;;;;40.43;17.57;;;;;;;-2.08;100.00;99929.13;10346291;28;20036;-91
2021/12/10 18:22:24;;;;;;;37.57;16.87;;;;;;;-6.75;100.00;99383.16;10343970;28;20125;-93
2021/12/10 18:27:26;;;;;;;35.30;15.83;;;;;;;-9.18;100.00;99178.28;10312963;28;20061;-88
2021/12/10 18:32:28;;;;;;;38.93;16.87;;;;;;;-3.93;100.00;99892.59;10282811;28;20500;-88
2021/12/10 18:37:32;;;;;;;36.43;18.43;;;;;;;-5.55;100.00;99630.81;10304838;28;20129;-88
2021/12/10 18:42:37;;;;;;;43.87;19.77;;;;;;;-5.54;100.00;99566.28;10292119;28;20038;-89
2021/12/10 18:47:38;;;;;;;36.77;18.13;;;;;;;-7.51;100.00;99342.03;10278126;28;20113;-89
2021/12/10 18:52:39;;;;;;;48.43;20.50;;;;;;;-4.09;100.00;99804.91;10278201;28;20095;-92
2021/12/10 18:57:40;;;;;;;48.47;20.30;;;;;;;-4.13;100.00;99865.44;10299307;28;20108;-87
2021/12/10 19:02:42;;;;;;;57.13;23.93;;;;;;;-3.78;100.00;99793.13;10263999;28;20133;-86
2021/12/10 19:07:50;;;;;;;53.13;24.57;;;;;;;-8.38;100.00;99115.97;10297177;28;20038;-89
2021/12/10 19:12:55;;;;;;;58.60;23.90;;;;;;;-4.90;100.00;99802.00;10276802;28;20473;-87
2021/12/10 19:18:00;;;;;;;57.70;26.20;;;;;;;-5.21;100.00;99672.44;10283679;28;20131;-92
2021/12/10 19:23:07;;;;;;;55.03;24.53;;;;;;;-6.86;100.00;99437.09;10301362;28;20082;-90
2021/12/10 19:28:35;;;;;;;44.67;20.87;;;;;;;-5.20;100.00;99632.00;10297644;28;20030;-89
2021/12/10 19:33:44;;;;;;;50.37;21.73;;;;;;;-6.41;100.00;99494.31;10318800;28;20107;-89
2021/12/10 19:38:54;;;;;;;54.90;23.33;;;;;;;-8.12;100.00;99185.06;10327252;28;20129;-89
2021/12/10 19:44:00;;;;;;;48.00;22.57;;;;;;;-5.58;100.00;99762.56;10326674;28;20026;-89
2021/12/10 19:49:12;;;;;;;53.63;22.13;;;;;;;-8.71;100.00;99274.56;10311310;28;20121;-90
2021/12/10 19:54:27;;;;;;;45.73;21.20;;;;;;;-4.56;100.00;99891.19;10327762;28;20026;-90
2021/12/10 19:59:32;;;;;;;52.47;23.30;;;;;;;-7.09;100.00;99544.03;10326035;28;20418;-89
2021/12/10 20:04:37;;;;;;;55.87;24.27;;;;;;;-3.54;100.00;99996.44;10246668;28;20411;-89
2021/12/10 20:09:51;;;;;;;49.43;22.27;;;;;;;-5.26;100.00;99842.00;10245238;28;20126;-89
2021/12/10 20:14:58;;;;;;;56.20;23.37;;;;;;;-5.46;100.00;99755.78;10231045;28;20090;-90
2021/12/10 20:20:03;;;;;;;53.13;23.37;;;;;;;-8.50;100.00;99410.09;10253285;28;20042;-89
2021/12/10 20:25:11;;;;;;;55.40;24.30;;;;;;;-5.95;100.00;99687.25;10253673;28;20037;-90
2021/12/10 20:30:19;;;;;;;60.50;24.97;;;;;;;-2.58;100.00;100151.91;10348306;28;20283;-90
2021/12/10 20:35:33;;;;;;;62.57;29.83;;;;;;;-5.82;100.00;99745.63;10333053;28;20141;-90
2021/12/10 20:40:44;;;;;;;62.70;28.63;;;;;;;-8.19;100.00;99354.16;10287804;28;20042;-93
2021/12/10 20:45:56;;;;;;;64.27;28.93;;;;;;;-4.76;100.00;99843.31;10272734;28;20054;-89
2021/12/10 20:50:59;;;;;;;63.27;27.10;;;;;;;-2.87;100.00;100226.31;10288029;28;20394;-90
2021/12/10 20:56:05;;;;;;;57.37;28.07;;;;;;;-4.61;100.00;99877.47;10288410;28;20045;-90
2021/12/10 21:01:14;;;;;;;60.72;28.05;;;;;;;-2.68;100.00;100223.09;10289460;28;20074;-83
2021/12/10 21:06:18;;;;;;;71.30;29.30;;;;;;;-6.60;100.00;99593.84;10304120;28;20030;-83
2021/12/10 21:11:34;;;;;;;60.47;28.13;;;;;;;-3.33;100.00;100148.28;10790085;23;20089;-92
2021/12/10 21:16:37;;;;;;;69.20;30.75;;;;;;;-4.61;100.00;99947.28;10329248;28;20709;-90
2021/12/10 21:21:44;;;;;;;74.40;32.60;;;;;;;-3.67;100.00;100134.28;10322684;28;20341;-90
2021/12/10 21:26:50;;;;;;;69.67;32.40;;;;;;;-4.80;100.00;100179.53;10747638;23;20062;-82
2021/12/10 21:31:59;;;;;;;66.93;31.23;;;;;;;-2.96;100.00;100343.22;10322784;28;20040;-79
2021/12/10 21:42:08;;;;;;;81.70;35.57;;;;;;;-5.50;100.00;99935.03;10363911;28;20033;-81
2021/12/10 21:47:11;;;;;;;74.47;34.97;;;;;;;-5.05;100.00;99998.91;10354991;28;20029;-81
2021/12/10 21:52:25;;;;;;;83.07;34.70;;;;;;;-5.76;100.00;99915.66;10338160;28;20032;-81
2021/12/10 21:57:29;;;;;;;77.13;34.27;;;;;;;-4.89;100.00;100031.88;10336488;28;20561;-81
2021/12/10 22:02:35;;;;;;;80.53;34.87;;;;;;;-4.11;100.00;100190.53;10323838;28;20444;-81
2021/12/10 22:07:45;;;;;;;76.00;33.88;;;;;;;-3.75;100.00;100233.84;10340114;28;20084;-81
2021/12/10 22:13:10;;;;;;;87.17;37.13;;;;;;;-3.17;100.00;100325.84;10325334;28;20041;-83
2021/12/10 22:18:15;;;;;;;82.50;35.80;;;;;;;-3.95;100.00;100222.72;10329562;28;20109;-83
2021/12/10 22:23:16;;;;;;;58.65;26.25;;;;;;;-6.49;100.00;99877.28;10310725;28;20029;-83
2021/12/10 22:28:38;;;;;;;84.23;36.33;;;;;;;-3.26;100.00;100361.91;10311473;28;20521;-84
2021/12/10 22:33:39;;;;;;;83.40;36.43;;;;;;;-6.48;100.00;99841.47;10309677;28;20042;-83
2021/12/10 22:38:46;;;;;;;86.00;36.60;;;;;;;-5.20;100.00;100055.16;10296279;28;20116;-84
2021/12/10 22:43:49;;;;;;;90.67;41.83;;;;;;;-3.29;100.00;100529.16;10301579;28;20516;-85
2021/12/10 22:49:08;;;;;;;90.47;38.90;;;;;;;-6.56;100.00;99967.31;10322887;28;20061;-87
2021/12/10 22:54:21;;;;;;;89.83;35.97;;;;;;;-5.80;100.00;100070.66;10318347;28;20066;-83
2021/12/10 22:59:25;;;;;;;94.90;37.90;;;;;;;-6.63;100.00;99934.19;10294937;28;20045;-85
2021/12/10 23:04:35;;;;;;;91.00;34.97;;;;;;;-4.87;100.00;100190.94;10306829;28;20041;-82
2021/12/10 23:09:37;;;;;;;84.23;33.97;;;;;;;-5.42;100.00;100129.13;10311353;28;20485;-82
2021/12/10 23:14:42;;;;;;;85.60;36.00;;;;;;;-5.34;100.00;100247.16;10328587;28;20046;-82
2021/12/10 23:19:50;;;;;;;80.73;33.63;;;;;;;-5.58;100.00;100133.50;10324811;28;20073;-90
2021/12/10 23:25:01;;;;;;;80.23;35.07;;;;;;;-4.71;100.00;100289.44;10314222;28;20046;-91
2021/12/10 23:30:13;;;;;;;79.93;36.60;;;;;;;-4.88;100.00;100360.25;10318186;28;20056;-82
2021/12/10 23:35:14;;;;;;;90.63;39.07;;;;;;;-3.52;100.00;100486.00;10345669;28;20388;-91
2021/12/10 23:40:24;;;;;;;88.53;38.90;;;;;;;-4.30;100.00;100442.56;10345802;28;20125;-91
2021/12/10 23:45:32;;;;;;;85.53;36.93;;;;;;;-6.92;100.00;99994.38;10363164;28;20499;-91
2021/12/10 23:50:39;;;;;;;83.40;36.43;;;;;;;-3.61;100.00;100504.03;10295947;28;20440;-90
2021/12/10 23:55:45;;;;;;;83.23;35.90;;;;;;;-4.24;100.00;100410.63;10308748;28;20097;-90
